Terminal Aerodrome Forecast
Issued by NWS Cleveland, OH

Home | Current Version | Previous Version | Text Only | Print | Product List | Glossary Off
Versions: 1 2 3 4 5 6 7 8 9 10 11 12 13 14 15 16 17 18 19 20 21 22 23 24 25 26 27 28 29

000
FTUS41 KCLE 151741
TAFERI
TAF
KERI 151741Z 1518/1618 22012KT P6SM SCT045 OVC110
     FM152000 22012G20KT P6SM VCSH OVC025
     FM152100 25014G24KT 3SM -SHSN OVC020
      TEMPO 1522/1602 3/4SM -SHSN OVC012
     FM161000 25012G20KT 1SM -SN OVC008
     FM161600 29010KT 4SM -SHSN OVC012=

USA.gov is the U.S. government's official web portal to all federal, state and local government web resources and services.